THY6198 GMMN-LTFM
Flight info
| Callsign | THY6198 |
|---|---|
| Flight time | N/A |
| Altitude | 31000 |
| Route | SADIC UR975 POBUB/N0477F330 UR975 FES/N0477F340 UG850 BERUM DCT GONZA DCT AMR DCT DOSEK DCT RESTU DCT ALT DCT SUMMO DCT MITOS DCT BRUNO DCT RUXET DCT IZA DCT TUKRO DCT ASMOT DCT PTC DCT MHN DCT MORSS DCT BAVON DCT ORKUM DCT ELSAG DCT ALG DCT VAVAX DCT UNIXO DCT GOKEL/N0472F350 DCT LIMJA DCT TIRCA DCT OVVER DCT ADDER DCT PINDO DCT PEREN UN644 DIGTI UT162 DRAMO |
| Aircraft | B77F/H-SDE1E2E3FGHIJ2J3J4J5M1RWXY/LB1D1 |
Departure
| Time | 2026-04-30 15:14 |
|---|---|
| Airport | Mohammed V International Airport (GMMN) |
Arrival
| Time | N/A |
|---|---|
| Airport | İstanbul Airport (LTFM) |
| Time | Latitude | Longitude | Altitude | Speed | Heading |
|---|---|---|---|---|---|
| 2026-04-30 15:03 | 33.36580 | -7.57974 | 656 ft | 0 kts | 74° |
| 2026-04-30 15:04 | 33.36572 | -7.58009 | 656 ft | 4 kts | 77° |
| 2026-04-30 15:05 | 33.36576 | -7.58093 | 655 ft | 4 kts | 112° |
| 2026-04-30 15:06 | 33.36579 | -7.58103 | 654 ft | 0 kts | 114° |
| 2026-04-30 15:07 | 33.36557 | -7.58089 | 655 ft | 3 kts | 174° |
| 2026-04-30 15:08 | 33.36498 | -7.58111 | 657 ft | 5 kts | 203° |
| 2026-04-30 15:08 | 33.36323 | -7.58107 | 657 ft | 8 kts | 165° |
| 2026-04-30 15:09 | 33.36256 | -7.58183 | 658 ft | 8 kts | 254° |
| 2026-04-30 15:09 | 33.36175 | -7.58231 | 658 ft | 12 kts | 165° |
| 2026-04-30 15:10 | 33.36010 | -7.58175 | 658 ft | 13 kts | 164° |
| 2026-04-30 15:11 | 33.35672 | -7.58060 | 660 ft | 13 kts | 164° |
| 2026-04-30 15:11 | 33.35558 | -7.58161 | 660 ft | 13 kts | 257° |
| 2026-04-30 15:12 | 33.35728 | -7.58437 | 658 ft | 58 kts | 345° |
| 2026-04-30 15:13 | 33.37264 | -7.58963 | 656 ft | 163 kts | 344° |
| 2026-04-30 15:14 | 33.42198 | -7.60469 | 2369 ft | 185 kts | 1° |
| 2026-04-30 15:14 | 33.45477 | -7.56983 | 2945 ft | 249 kts | 47° |
| 2026-04-30 15:16 | 33.51653 | -7.48562 | 6064 ft | 280 kts | 49° |
| 2026-04-30 15:17 | 33.56689 | -7.41153 | 8330 ft | 295 kts | 76° |
| 2026-04-30 15:18 | 33.58731 | -7.28555 | 10561 ft | 340 kts | 79° |
| 2026-04-30 15:19 | 33.60246 | -7.19431 | 11539 ft | 394 kts | 79° |
| 2026-04-30 17:39 | 40.73743 | 15.55119 | 35190 ft | 542 kts | 89° |
| 2026-04-30 17:42 | 40.72368 | 16.04837 | 35180 ft | 544 kts | 89° |
| 2026-04-30 17:43 | 40.71600 | 16.29717 | 35172 ft | 544 kts | 89° |
| 2026-04-30 17:44 | 40.70607 | 16.59586 | 35159 ft | 543 kts | 89° |